createdAt,value
2022-09-21T00:00:56.589Z,4.90
2022-09-21T00:03:01.184Z,4.82
2022-09-21T00:05:06.665Z,4.47
2022-09-21T00:07:11.049Z,2.22
2022-09-21T00:09:15.397Z,4.65
2022-09-21T00:11:22.148Z,3.40
2022-09-21T00:13:28.424Z,3.25
2022-09-21T00:15:34.474Z,3.72
2022-09-21T00:17:39.425Z,2.88
2022-09-21T00:19:43.567Z,3.33
2022-09-21T00:21:47.771Z,4.38
2022-09-21T00:23:52.258Z,3.88
2022-09-21T00:26:06.525Z,7.25
2022-09-21T00:28:10.834Z,3.72
2022-09-21T00:30:15.485Z,7.35
2022-09-21T00:32:21.416Z,3.50
2022-09-21T00:34:26.021Z,5.93
2022-09-21T00:36:30.743Z,5.28
2022-09-21T00:38:35.782Z,2.70
2022-09-21T00:40:39.968Z,4.07
2022-09-21T00:42:44.611Z,3.42
2022-09-21T00:44:49.232Z,9.20
2022-09-21T00:46:56.860Z,4.78
2022-09-21T00:49:03.360Z,4.82
2022-09-21T00:51:09.446Z,5.93
2022-09-21T00:53:13.996Z,3.35
2022-09-21T00:55:24.205Z,3.10
2022-09-21T00:59:38.670Z,4.60
2022-09-21T01:01:43.172Z,4.40
2022-09-21T01:03:47.982Z,2.65
2022-09-21T01:05:53.885Z,3.63
2022-09-21T01:08:02.085Z,4.25
2022-09-21T01:10:10.403Z,6.28
2022-09-21T01:12:28.511Z,5.13
2022-09-21T01:14:47.431Z,5.65
2022-09-21T01:17:03.581Z,8.00
2022-09-21T01:19:35.131Z,4.25
2022-09-21T01:21:51.909Z,7.35
2022-09-21T01:24:21.406Z,6.60
2022-09-21T01:26:43.979Z,6.10
2022-09-21T01:29:17.825Z,7.20
2022-09-21T01:31:28.112Z,7.70
2022-09-21T01:33:38.086Z,4.93
2022-09-21T01:35:47.668Z,5.67
2022-09-21T01:37:57.802Z,5.55
2022-09-21T01:40:06.510Z,7.28
2022-09-21T01:42:12.103Z,5.35
2022-09-21T01:44:22.176Z,7.80
2022-09-21T01:46:31.895Z,5.38
2022-09-21T01:48:41.239Z,7.25
2022-09-21T01:50:49.593Z,8.30
2022-09-21T01:52:59.829Z,6.13
2022-09-21T01:55:09.379Z,5.82
2022-09-21T01:57:20.445Z,5.72
2022-09-21T01:59:34.492Z,4.05
2022-09-21T02:01:44.652Z,4.80
2022-09-21T02:03:52.631Z,6.80
2022-09-21T02:05:58.644Z,4.78
2022-09-21T02:08:03.321Z,5.32
2022-09-21T02:10:11.076Z,7.15
2022-09-21T02:12:18.903Z,6.00
2022-09-21T02:14:27.676Z,6.25
2022-09-21T02:16:39.791Z,4.90
2022-09-21T02:18:57.915Z,5.30
2022-09-21T02:21:04.741Z,5.20
2022-09-21T02:23:17.008Z,5.22
2022-09-21T02:25:29.354Z,4.22
2022-09-21T02:27:39.694Z,6.32
2022-09-21T02:29:50.945Z,4.53
2022-09-21T02:32:00.877Z,5.15
2022-09-21T02:34:18.177Z,4.38
2022-09-21T02:36:30.033Z,4.88
2022-09-21T02:38:37.047Z,7.15
2022-09-21T02:40:45.775Z,5.20
2022-09-21T02:42:53.973Z,4.60
2022-09-21T02:45:06.337Z,5.43
2022-09-21T02:47:16.082Z,10.32
2022-09-21T02:49:23.495Z,4.60
2022-09-21T02:51:32.277Z,5.55
2022-09-21T02:53:38.835Z,4.80
2022-09-21T02:55:45.425Z,3.90
2022-09-21T02:57:51.104Z,4.28
2022-09-21T02:59:55.516Z,5.13
2022-09-21T03:02:02.646Z,5.68
2022-09-21T03:04:06.949Z,6.82
2022-09-21T03:06:11.394Z,6.97
2022-09-21T03:08:15.891Z,7.20
2022-09-21T03:10:20.869Z,6.85
2022-09-21T03:12:26.401Z,5.00
2022-09-21T03:14:31.440Z,8.38
2022-09-21T03:16:35.766Z,7.50
2022-09-21T03:18:43.239Z,5.68
2022-09-21T03:20:47.532Z,6.13
2022-09-21T03:22:51.690Z,9.73
2022-09-21T03:24:57.635Z,6.43
2022-09-21T03:27:01.858Z,4.75
2022-09-21T03:29:06.224Z,4.43
2022-09-21T03:31:10.475Z,6.68
2022-09-21T03:33:14.713Z,5.85
2022-09-21T03:35:21.678Z,8.55
2022-09-21T03:37:25.813Z,5.65
2022-09-21T03:39:29.987Z,5.88
2022-09-21T03:41:35.018Z,4.30
2022-09-21T03:43:39.148Z,5.72
2022-09-21T03:45:44.117Z,8.48
2022-09-21T03:47:48.229Z,9.13
2022-09-21T03:49:52.667Z,10.52
2022-09-21T03:51:58.472Z,6.43
2022-09-21T03:54:03.017Z,5.57
2022-09-21T03:56:07.369Z,9.63
2022-09-21T03:58:11.768Z,9.10
2022-09-21T04:00:17.567Z,10.00
2022-09-21T04:02:22.657Z,8.98
2022-09-21T04:04:26.985Z,9.52
2022-09-21T04:06:31.382Z,6.22
2022-09-21T04:08:37.264Z,8.90
2022-09-21T04:10:42.843Z,7.40
2022-09-21T04:12:47.795Z,8.38
2022-09-21T04:14:52.143Z,7.15
2022-09-21T04:16:56.961Z,8.85
2022-09-21T04:19:01.693Z,6.93
2022-09-21T04:21:06.523Z,8.00
2022-09-21T04:23:10.935Z,8.85
2022-09-21T04:25:17.044Z,8.10
2022-09-21T04:27:21.420Z,7.88
2022-09-21T04:29:25.596Z,8.20
2022-09-21T04:31:31.092Z,7.47
2022-09-21T04:33:35.433Z,6.90
2022-09-21T04:35:39.872Z,10.27
2022-09-21T04:37:44.693Z,9.35
2022-09-21T04:39:48.855Z,9.73
2022-09-21T04:41:54.591Z,9.80
2022-09-21T04:43:59.953Z,8.52
2022-09-21T04:46:08.560Z,9.35
2022-09-21T04:48:12.812Z,8.95
2022-09-21T04:50:17.383Z,14.60
2022-09-21T04:52:21.679Z,15.43
2022-09-21T04:54:25.960Z,9.73
2022-09-21T04:56:30.427Z,10.32
2022-09-21T04:58:36.867Z,14.07
2022-09-21T05:00:41.101Z,10.13
2022-09-21T05:02:45.339Z,8.82
2022-09-21T05:04:51.129Z,7.80
2022-09-21T05:06:55.574Z,10.10
2022-09-21T05:09:13.886Z,9.13
2022-09-21T05:11:19.746Z,5.78
2022-09-21T05:13:23.969Z,8.50
2022-09-21T05:15:30.058Z,9.32
2022-09-21T05:17:36.575Z,8.98
2022-09-21T05:19:40.827Z,7.63
2022-09-21T05:21:45.131Z,7.43
2022-09-21T05:23:49.312Z,8.20
2022-09-21T05:25:53.702Z,11.20
2022-09-21T05:27:57.997Z,12.57
2022-09-21T05:30:02.897Z,15.05
2022-09-21T05:32:18.967Z,21.30
2022-09-21T05:34:36.951Z,8.80
2022-09-21T05:36:50.040Z,14.55
2022-09-21T05:38:55.173Z,10.48
2022-09-21T05:41:00.131Z,11.02
2022-09-21T05:43:07.507Z,10.63
2022-09-21T05:45:16.496Z,16.60
2022-09-21T05:47:27.639Z,18.35
2022-09-21T05:49:45.961Z,17.25
2022-09-21T05:52:03.959Z,17.52
2022-09-21T05:54:16.845Z,15.07
2022-09-21T05:56:33.979Z,16.95
2022-09-21T05:58:47.458Z,25.45
2022-09-21T06:01:04.164Z,26.27
2022-09-21T06:03:29.059Z,19.48
2022-09-21T06:05:33.673Z,16.40
2022-09-21T06:07:37.946Z,17.92
2022-09-21T06:09:43.363Z,9.65
2022-09-21T06:11:47.771Z,14.43
2022-09-21T06:13:52.074Z,14.90
2022-09-21T06:15:56.495Z,25.48
2022-09-21T06:18:00.688Z,17.70
2022-09-21T06:20:08.278Z,17.83
2022-09-21T06:22:12.427Z,15.35
2022-09-21T06:24:19.480Z,13.20
2022-09-21T06:26:23.657Z,12.80
2022-09-21T06:28:28.216Z,18.92
2022-09-21T06:30:33.412Z,10.13
2022-09-21T06:32:37.635Z,10.40
2022-09-21T06:34:42.996Z,11.00
2022-09-21T06:36:48.562Z,15.25
2022-09-21T06:38:52.702Z,10.77
2022-09-21T06:40:57.255Z,16.38
2022-09-21T06:43:04.181Z,6.97
2022-09-21T06:45:10.540Z,7.38
2022-09-21T06:47:15.014Z,7.68
2022-09-21T06:49:19.303Z,12.38
2022-09-21T06:51:24.324Z,6.60
2022-09-21T06:53:31.777Z,8.98
2022-09-21T06:55:35.965Z,15.90
2022-09-21T06:57:40.403Z,8.32
2022-09-21T06:59:44.592Z,12.05
2022-09-21T07:01:48.922Z,14.75
2022-09-21T07:03:54.122Z,5.03
2022-09-21T07:05:58.493Z,6.07
2022-09-21T07:08:03.435Z,6.38
2022-09-21T07:10:14.322Z,8.95
2022-09-21T07:12:18.882Z,15.27
2022-09-21T07:14:26.370Z,8.25
2022-09-21T07:16:31.199Z,5.50
2022-09-21T07:18:43.402Z,8.00
2022-09-21T07:20:49.728Z,5.10
2022-09-21T07:22:53.978Z,8.10
2022-09-21T07:24:58.198Z,4.88
2022-09-21T07:27:03.832Z,3.03
2022-09-21T07:29:08.227Z,4.57
2022-09-21T07:31:15.159Z,4.72
2022-09-21T07:33:19.444Z,6.70
2022-09-21T07:35:23.791Z,7.88
2022-09-21T07:37:28.676Z,8.95
2022-09-21T07:39:33.089Z,14.23
2022-09-21T07:41:37.737Z,7.45
2022-09-21T07:43:43.695Z,8.20
2022-09-21T07:45:55.561Z,8.35
2022-09-21T07:48:04.397Z,6.03
2022-09-21T07:50:09.779Z,3.83
2022-09-21T07:52:15.266Z,7.22
2022-09-21T07:54:19.718Z,4.20
2022-09-21T07:56:24.147Z,3.50
2022-09-21T07:58:45.675Z,6.68
2022-09-21T08:00:51.305Z,4.72
2022-09-21T08:02:55.543Z,3.50
2022-09-21T08:04:59.725Z,2.42
2022-09-21T08:07:03.957Z,6.35
2022-09-21T08:09:08.722Z,3.55
2022-09-21T08:11:13.034Z,5.55
2022-09-21T08:13:17.247Z,8.93
2022-09-21T08:15:44.392Z,14.25
2022-09-21T08:17:47.134Z,4.68
2022-09-21T08:19:51.334Z,5.18
2022-09-21T08:21:57.821Z,3.70
2022-09-21T08:24:02.693Z,4.18
2022-09-21T08:26:08.019Z,2.30
2022-09-21T08:28:12.238Z,2.08
2022-09-21T08:30:16.540Z,7.05
2022-09-21T08:32:49.329Z,6.13
2022-09-21T08:34:51.202Z,5.03
2022-09-21T08:36:56.011Z,5.65
2022-09-21T08:39:00.902Z,3.40
2022-09-21T08:41:16.614Z,4.93
2022-09-21T08:43:32.058Z,6.10
2022-09-21T08:45:41.195Z,3.65
2022-09-21T08:47:49.319Z,3.17
2022-09-21T08:49:59.940Z,3.80
2022-09-21T08:52:08.396Z,3.47
2022-09-21T08:54:20.700Z,5.60
2022-09-21T08:56:41.890Z,2.60
2022-09-21T08:58:51.782Z,11.25
2022-09-21T09:01:22.309Z,3.17
2022-09-21T09:04:05.877Z,3.92
2022-09-21T09:06:26.519Z,3.03
2022-09-21T09:08:56.383Z,2.67
2022-09-21T09:11:11.783Z,8.75
2022-09-21T09:13:44.501Z,6.43
2022-09-21T09:16:03.819Z,7.13
2022-09-21T09:18:13.436Z,2.17
2022-09-21T09:20:23.901Z,1.83
2022-09-21T09:22:36.540Z,5.65
2022-09-21T09:24:44.800Z,4.53
2022-09-21T09:26:54.052Z,1.50
2022-09-21T09:29:02.128Z,4.57
2022-09-21T09:31:19.763Z,3.83
2022-09-21T09:33:27.952Z,4.88
2022-09-21T09:35:37.409Z,5.22
2022-09-21T09:37:44.315Z,22.88
2022-09-21T09:39:55.419Z,3.55
2022-09-21T09:42:35.087Z,1.30
2022-09-21T09:45:04.903Z,1.45
2022-09-21T09:49:33.046Z,2.45
2022-09-21T09:51:40.038Z,2.28
2022-09-21T09:53:46.674Z,1.25
2022-09-21T09:55:52.675Z,1.77
2022-09-21T09:57:59.166Z,1.38
2022-09-21T10:00:09.700Z,1.33
2022-09-21T10:02:24.784Z,2.55
2022-09-21T10:04:29.493Z,3.83
2022-09-21T10:06:34.173Z,4.72
2022-09-21T10:08:46.629Z,2.33
2022-09-21T10:10:51.379Z,1.73
2022-09-21T10:12:56.561Z,1.55
2022-09-21T10:15:01.632Z,2.08
2022-09-21T10:17:09.190Z,2.67
2022-09-21T10:19:18.636Z,2.40
2022-09-21T10:21:25.881Z,2.17
2022-09-21T10:23:31.116Z,6.78
2022-09-21T10:25:40.178Z,2.80
2022-09-21T10:27:48.544Z,1.88
2022-09-21T10:29:52.893Z,2.45
2022-09-21T10:31:58.283Z,3.38
2022-09-21T10:34:16.061Z,1.63
2022-09-21T10:36:38.941Z,0.80
2022-09-21T10:38:43.199Z,3.05
2022-09-21T10:40:49.793Z,4.13
2022-09-21T10:42:56.223Z,1.70
2022-09-21T10:45:08.633Z,0.80
2022-09-21T10:47:24.214Z,1.05
2022-09-21T10:49:30.536Z,1.17
2022-09-21T10:51:34.919Z,1.20
2022-09-21T10:53:39.242Z,1.73
2022-09-21T10:56:04.849Z,2.70
2022-09-21T10:58:15.681Z,0.85
2022-09-21T11:00:35.549Z,5.75
2022-09-21T11:02:43.148Z,1.45
2022-09-21T11:04:50.900Z,1.35
2022-09-21T11:06:59.721Z,1.70
2022-09-21T11:09:08.196Z,2.17
2022-09-21T11:11:31.364Z,1.45
2022-09-21T11:13:42.307Z,1.45
2022-09-21T11:15:53.033Z,6.28
2022-09-21T11:18:11.705Z,5.30
2022-09-21T11:20:24.908Z,1.55
2022-09-21T11:22:36.100Z,3.42
2022-09-21T11:24:48.480Z,1.75
2022-09-21T11:26:59.264Z,4.03
2022-09-21T11:29:13.615Z,0.90
2022-09-21T11:31:53.042Z,1.30
2022-09-21T11:34:33.497Z,1.88
2022-09-21T11:36:55.898Z,2.88
2022-09-21T11:39:07.816Z,4.00
2022-09-21T11:41:46.019Z,2.80
2022-09-21T11:44:14.890Z,5.85
2022-09-21T11:46:26.468Z,1.95
2022-09-21T11:48:56.342Z,3.58
2022-09-21T11:53:43.449Z,1.85
2022-09-21T11:56:05.325Z,3.75
2022-09-21T11:58:16.785Z,2.05
2022-09-21T12:00:25.138Z,7.07
2022-09-21T12:02:52.342Z,18.55
2022-09-21T12:05:03.626Z,8.27
2022-09-21T12:07:21.943Z,6.63
2022-09-21T12:09:49.570Z,11.95
2022-09-21T12:12:05.211Z,6.93
2022-09-21T12:14:22.291Z,26.33
2022-09-21T12:16:37.630Z,15.00
2022-09-21T12:18:48.381Z,6.60
2022-09-21T12:21:00.171Z,11.45
2022-09-21T12:23:09.179Z,11.60
2022-09-21T12:25:20.053Z,11.25
2022-09-21T12:27:30.777Z,6.13
2022-09-21T12:29:43.481Z,4.03
2022-09-21T12:31:56.901Z,2.55
2022-09-21T12:34:06.353Z,5.95
2022-09-21T12:36:17.328Z,18.17
2022-09-21T12:38:28.528Z,7.53
2022-09-21T12:40:39.451Z,5.75
2022-09-21T12:42:47.925Z,3.33
2022-09-21T12:44:57.248Z,4.00
2022-09-21T12:47:10.339Z,3.13
2022-09-21T12:49:20.042Z,1.85
2022-09-21T12:51:29.697Z,7.80
2022-09-21T12:53:37.837Z,2.47
2022-09-21T12:55:50.111Z,5.28
2022-09-21T12:58:18.317Z,4.22
2022-09-21T13:00:24.651Z,3.35
2022-09-21T13:02:36.458Z,19.38
2022-09-21T13:04:58.859Z,10.02
2022-09-21T13:07:35.084Z,5.47
2022-09-21T13:09:43.271Z,7.00
2022-09-21T13:11:56.784Z,3.22
2022-09-21T13:14:04.062Z,6.00
2022-09-21T13:16:23.286Z,14.07
2022-09-21T13:18:36.307Z,11.55
2022-09-21T13:20:42.384Z,7.00
2022-09-21T13:22:49.068Z,4.13
2022-09-21T13:25:06.335Z,3.72
2022-09-21T13:27:11.032Z,1.88
2022-09-21T13:29:40.164Z,7.18
2022-09-21T13:31:58.129Z,12.03
2022-09-21T13:34:23.289Z,5.07
2022-09-21T13:36:36.397Z,2.90
2022-09-21T13:39:15.311Z,2.88
2022-09-21T13:41:45.453Z,2.10
2022-09-21T13:44:05.101Z,2.72
2022-09-21T13:46:10.343Z,2.40
2022-09-21T13:48:27.792Z,1.58
2022-09-21T13:50:42.771Z,1.33
2022-09-21T13:52:52.116Z,7.35
2022-09-21T13:54:59.741Z,5.13
2022-09-21T13:57:19.925Z,2.20
2022-09-21T13:59:27.966Z,3.13
2022-09-21T14:01:46.617Z,1.80
2022-09-21T14:03:54.693Z,4.33
2022-09-21T14:06:07.643Z,2.50
2022-09-21T14:08:31.407Z,2.88
2022-09-21T14:10:38.879Z,2.28
2022-09-21T14:12:45.572Z,4.00
2022-09-21T14:15:25.232Z,2.38
2022-09-21T14:17:38.263Z,3.00
2022-09-21T14:20:30.264Z,1.63
2022-09-21T14:22:44.344Z,4.70
2022-09-21T14:24:51.456Z,2.85
2022-09-21T14:27:07.216Z,2.33
2022-09-21T14:29:21.033Z,2.08
2022-09-21T14:31:30.485Z,5.45
2022-09-21T14:33:44.278Z,2.30
2022-09-21T14:35:49.298Z,2.60
2022-09-21T14:37:58.852Z,3.97
2022-09-21T14:40:07.209Z,1.42
2022-09-21T14:42:19.617Z,7.78
2022-09-21T14:44:27.825Z,3.05
2022-09-21T14:46:53.895Z,3.13
2022-09-21T14:49:12.357Z,4.93
2022-09-21T14:51:24.106Z,1.58
2022-09-21T14:53:56.068Z,1.20
2022-09-21T14:56:22.973Z,1.75
2022-09-21T14:58:44.237Z,5.38
2022-09-21T15:00:50.346Z,3.00
2022-09-21T15:03:11.203Z,3.53
2022-09-21T15:05:27.318Z,7.68
2022-09-21T15:07:53.857Z,2.90
2022-09-21T15:10:43.444Z,2.38
2022-09-21T15:12:55.215Z,5.88
2022-09-21T15:15:07.276Z,4.65
2022-09-21T15:17:25.559Z,3.47
2022-09-21T15:19:30.281Z,3.15
2022-09-21T15:21:35.730Z,8.25
2022-09-21T15:23:41.263Z,3.95
2022-09-21T15:25:58.701Z,2.63
2022-09-21T15:28:04.887Z,2.72
2022-09-21T15:30:21.379Z,2.55
2022-09-21T15:32:34.173Z,2.30
2022-09-21T15:34:38.488Z,2.75
2022-09-21T15:36:44.656Z,4.65
2022-09-21T15:38:50.558Z,3.97
2022-09-21T15:41:01.429Z,2.95
2022-09-21T15:43:20.977Z,3.42
2022-09-21T15:45:28.518Z,2.92
2022-09-21T15:47:34.172Z,3.25
2022-09-21T15:49:38.883Z,2.67
2022-09-21T15:51:46.086Z,5.40
2022-09-21T15:53:54.105Z,5.20
2022-09-21T15:56:01.889Z,6.07
2022-09-21T15:58:22.432Z,4.85
2022-09-21T16:00:28.636Z,7.85
2022-09-21T16:02:38.703Z,8.57
2022-09-21T16:04:49.408Z,18.30
2022-09-21T16:07:04.776Z,17.70
2022-09-21T16:09:39.188Z,10.35
2022-09-21T16:11:45.352Z,10.38
2022-09-21T16:14:07.776Z,13.07
2022-09-21T16:16:13.884Z,13.73
2022-09-21T16:18:35.941Z,10.65
2022-09-21T16:20:44.036Z,9.15
2022-09-21T16:22:50.246Z,12.55
2022-09-21T16:24:56.600Z,14.80
2022-09-21T16:27:04.410Z,8.23
2022-09-21T16:29:20.793Z,7.50
2022-09-21T16:31:31.697Z,4.35
2022-09-21T16:33:42.407Z,3.38
2022-09-21T16:35:47.147Z,7.97
2022-09-21T16:37:58.343Z,4.82
2022-09-21T16:40:03.300Z,4.83
2022-09-21T16:42:12.071Z,4.57
2022-09-21T16:44:22.911Z,4.68
2022-09-21T16:46:28.944Z,5.72
2022-09-21T16:48:33.165Z,4.50
2022-09-21T16:50:38.290Z,4.95
2022-09-21T16:52:52.510Z,4.30
2022-09-21T16:54:58.777Z,4.35
2022-09-21T16:57:06.150Z,4.40
2022-09-21T16:59:21.821Z,7.85
2022-09-21T17:01:27.621Z,9.32
2022-09-21T17:03:34.840Z,10.10
2022-09-21T17:05:39.184Z,15.35
2022-09-21T17:07:43.395Z,6.47
2022-09-21T17:09:48.687Z,5.88
2022-09-21T17:11:54.598Z,15.25
2022-09-21T17:14:01.455Z,9.02
2022-09-21T17:16:08.158Z,8.02
2022-09-21T17:18:13.648Z,15.18
2022-09-21T17:20:24.455Z,16.50
2022-09-21T17:22:29.327Z,15.65
2022-09-21T17:24:49.934Z,15.02
2022-09-21T17:26:55.574Z,15.73
2022-09-21T17:28:59.882Z,12.52
2022-09-21T17:31:09.442Z,8.13
2022-09-21T17:33:13.723Z,11.13
2022-09-21T17:35:21.739Z,10.27
2022-09-21T17:37:26.930Z,9.77
2022-09-21T17:39:31.140Z,6.30
2022-09-21T17:41:41.822Z,6.00
2022-09-21T17:44:04.407Z,4.55
2022-09-21T17:46:17.730Z,5.05
2022-09-21T17:48:23.657Z,7.35
2022-09-21T17:50:29.473Z,6.40
2022-09-21T17:52:51.524Z,10.38
2022-09-21T17:54:56.570Z,6.82
2022-09-21T17:57:09.379Z,9.80
2022-09-21T17:59:26.545Z,9.23
2022-09-21T18:01:35.139Z,7.93
2022-09-21T18:03:41.882Z,9.13
2022-09-21T18:05:51.005Z,14.07
2022-09-21T18:07:55.874Z,11.05
2022-09-21T18:10:00.730Z,10.10
2022-09-21T18:12:39.441Z,13.40
2022-09-21T18:14:53.527Z,6.32
2022-09-21T18:17:09.948Z,9.45
2022-09-21T18:19:31.094Z,9.52
2022-09-21T18:21:40.845Z,8.50
2022-09-21T18:24:06.151Z,8.55
2022-09-21T18:26:16.617Z,4.30
2022-09-21T18:28:28.676Z,9.45
2022-09-21T18:30:36.203Z,7.88
2022-09-21T18:32:58.750Z,8.60
2022-09-21T18:35:31.158Z,6.65
2022-09-21T18:37:46.342Z,9.52
2022-09-21T18:40:02.641Z,4.40
2022-09-21T18:42:23.973Z,6.63
2022-09-21T18:44:36.025Z,5.20
2022-09-21T18:46:51.476Z,5.38
2022-09-21T18:49:03.550Z,8.25
2022-09-21T18:51:16.549Z,5.50
2022-09-21T18:53:28.180Z,6.15
2022-09-21T18:55:33.655Z,7.13
2022-09-21T18:57:38.431Z,7.95
2022-09-21T18:59:43.342Z,7.05
2022-09-21T19:01:50.757Z,6.95
2022-09-21T19:03:55.450Z,8.52
2022-09-21T19:06:26.809Z,5.90
2022-09-21T19:08:37.728Z,10.75
2022-09-21T19:10:49.377Z,8.35
2022-09-21T19:13:10.298Z,9.25
2022-09-21T19:15:42.249Z,6.85
2022-09-21T19:18:03.968Z,6.07
2022-09-21T19:20:32.150Z,6.22
2022-09-21T19:22:46.299Z,6.93
2022-09-21T19:25:00.731Z,7.10
2022-09-21T19:27:23.622Z,6.78
2022-09-21T19:29:39.934Z,7.75
2022-09-21T19:31:44.386Z,5.68
2022-09-21T19:33:51.062Z,5.03
2022-09-21T19:35:57.147Z,5.80
2022-09-21T19:38:05.120Z,9.02
2022-09-21T19:40:10.767Z,7.43
2022-09-21T19:42:29.838Z,4.10
2022-09-21T19:44:46.316Z,5.15
2022-09-21T19:47:01.073Z,10.43
2022-09-21T19:49:13.759Z,5.50
2022-09-21T19:51:28.972Z,6.50
2022-09-21T19:53:55.777Z,6.18
2022-09-21T19:56:21.762Z,6.78
2022-09-21T19:58:43.953Z,6.63
2022-09-21T20:00:53.581Z,7.82
2022-09-21T20:03:05.862Z,4.35
2022-09-21T20:05:15.469Z,7.85
2022-09-21T20:07:25.947Z,5.50
2022-09-21T20:09:40.004Z,5.70
2022-09-21T20:11:51.676Z,5.55
2022-09-21T20:14:08.455Z,7.40
2022-09-21T20:16:31.594Z,5.60
2022-09-21T20:18:43.301Z,6.15
2022-09-21T20:20:47.914Z,5.65
2022-09-21T20:22:52.780Z,6.88
2022-09-21T20:25:03.157Z,5.22
2022-09-21T20:27:27.022Z,8.95
2022-09-21T20:29:31.560Z,6.20
2022-09-21T20:31:36.313Z,8.15
2022-09-21T20:33:40.416Z,8.20
2022-09-21T20:35:45.075Z,7.35
2022-09-21T20:37:50.621Z,7.28
2022-09-21T20:39:55.702Z,4.53
2022-09-21T20:42:01.422Z,8.10
2022-09-21T20:44:05.738Z,3.60
2022-09-21T20:46:11.782Z,5.68
2022-09-21T20:48:16.128Z,4.50
2022-09-21T20:50:21.141Z,5.55
2022-09-21T20:52:25.513Z,6.28
2022-09-21T20:54:29.578Z,4.30
2022-09-21T20:56:34.210Z,5.93
2022-09-21T20:58:41.556Z,8.20
2022-09-21T21:00:46.192Z,7.13
2022-09-21T21:02:51.026Z,6.00
2022-09-21T21:04:55.238Z,4.72
2022-09-21T21:06:59.346Z,6.13
2022-09-21T21:09:03.708Z,5.70
2022-09-21T21:11:07.857Z,7.00
2022-09-21T21:13:12.030Z,4.57
2022-09-21T21:15:17.793Z,5.28
2022-09-21T21:17:22.011Z,5.43
2022-09-21T21:19:26.141Z,5.68
2022-09-21T21:21:30.395Z,5.57
2022-09-21T21:23:54.627Z,4.80
2022-09-21T21:26:05.378Z,6.07
2022-09-21T21:28:09.921Z,7.68
2022-09-21T21:30:15.195Z,6.90
2022-09-21T21:32:23.179Z,3.90
2022-09-21T21:34:27.491Z,5.65
2022-09-21T21:36:31.746Z,5.22
2022-09-21T21:38:38.375Z,6.45
2022-09-21T21:40:42.457Z,7.65
2022-09-21T21:42:47.210Z,5.45
2022-09-21T21:44:51.616Z,9.13
2022-09-21T21:47:02.849Z,6.72
2022-09-21T21:49:21.262Z,7.93
2022-09-21T21:51:25.387Z,8.25
2022-09-21T21:53:30.601Z,4.60
2022-09-21T21:55:34.673Z,6.63
2022-09-21T21:57:38.819Z,6.97
2022-09-21T21:59:43.614Z,8.30
2022-09-21T22:01:48.057Z,9.35
2022-09-21T22:03:55.357Z,6.72
2022-09-21T22:06:05.205Z,5.07
2022-09-21T22:08:14.413Z,7.20
2022-09-21T22:10:18.926Z,5.30
2022-09-21T22:12:23.253Z,9.38
2022-09-21T22:14:28.344Z,5.50
2022-09-21T22:16:34.896Z,5.65
2022-09-21T22:18:39.873Z,4.68
2022-09-21T22:20:44.714Z,8.73
2022-09-21T22:22:50.267Z,5.95
2022-09-21T22:24:54.491Z,5.35
2022-09-21T22:26:58.569Z,4.43
2022-09-21T22:29:04.863Z,7.18
2022-09-21T22:31:11.555Z,6.70
2022-09-21T22:33:15.778Z,5.68
2022-09-21T22:35:21.703Z,6.00
2022-09-21T22:37:25.899Z,5.38
2022-09-21T22:39:32.324Z,6.82
2022-09-21T22:41:38.500Z,6.13
2022-09-21T22:43:42.882Z,5.18
2022-09-21T22:45:47.094Z,4.22
2022-09-21T22:47:51.268Z,7.53
2022-09-21T22:49:56.399Z,5.63
2022-09-21T22:52:00.490Z,9.07
2022-09-21T22:54:04.825Z,9.45
2022-09-21T22:56:12.287Z,6.05
2022-09-21T22:58:16.660Z,5.90
2022-09-21T23:00:20.974Z,6.93
2022-09-21T23:02:25.329Z,5.78
2022-09-21T23:04:29.770Z,6.30
2022-09-21T23:06:36.040Z,6.35
2022-09-21T23:08:40.570Z,5.10
2022-09-21T23:10:44.886Z,6.50
2022-09-21T23:12:51.801Z,7.55
2022-09-21T23:14:55.973Z,3.95
2022-09-21T23:17:00.125Z,4.75
2022-09-21T23:19:04.729Z,8.68
2022-09-21T23:21:11.551Z,6.13
2022-09-21T23:23:15.685Z,6.43
2022-09-21T23:25:19.844Z,5.03
2022-09-21T23:27:24.542Z,6.57
2022-09-21T23:29:30.101Z,6.45
2022-09-21T23:31:35.570Z,7.07
2022-09-21T23:33:41.262Z,9.82
2022-09-21T23:35:45.456Z,6.80
2022-09-21T23:37:49.849Z,4.90
2022-09-21T23:39:54.198Z,5.32
2022-09-21T23:41:58.769Z,4.68
2022-09-21T23:44:04.151Z,4.07
2022-09-21T23:46:11.409Z,5.93
2022-09-21T23:48:15.648Z,6.20
2022-09-21T23:50:19.902Z,4.15
2022-09-21T23:52:24.296Z,4.25
2022-09-21T23:54:29.132Z,6.82
2022-09-21T23:56:34.024Z,5.88
2022-09-21T23:58:38.135Z,4.45
